createdAt,value
2018-08-27T00:00:32.918Z,75.39
2018-08-27T00:01:11.277Z,75.60
2018-08-27T00:01:49.682Z,76.45
2018-08-27T00:02:28.148Z,75.69
2018-08-27T00:03:06.744Z,76.37
2018-08-27T00:03:45.606Z,76.51
2018-08-27T00:04:24.455Z,76.29
2018-08-27T00:05:03.147Z,75.77
2018-08-27T00:05:41.678Z,75.73
2018-08-27T00:06:20.171Z,76.48
2018-08-27T00:06:58.677Z,76.46
2018-08-27T00:07:37.191Z,75.37
2018-08-27T00:08:16.071Z,76.24
2018-08-27T00:08:54.684Z,76.54
2018-08-27T00:09:33.210Z,75.51
2018-08-27T00:10:11.815Z,75.44
2018-08-27T00:10:50.364Z,75.43
2018-08-27T00:11:28.951Z,76.15
2018-08-27T00:12:07.511Z,76.08
2018-08-27T00:12:46.196Z,75.91
2018-08-27T00:13:24.604Z,75.86
2018-08-27T00:14:03.206Z,76.45
2018-08-27T00:14:42.372Z,76.25
2018-08-27T00:15:20.987Z,75.50
2018-08-27T00:15:59.460Z,76.09
2018-08-27T00:16:38.209Z,75.65
2018-08-27T00:17:17.077Z,75.85
2018-08-27T00:17:55.716Z,75.61
2018-08-27T00:18:34.236Z,76.03
2018-08-27T00:19:12.788Z,75.53
2018-08-27T00:19:51.951Z,75.30
2018-08-27T00:20:30.537Z,76.22
2018-08-27T00:21:09.715Z,76.17
2018-08-27T00:21:48.851Z,75.34
2018-08-27T00:22:27.413Z,75.35
2018-08-27T00:23:06.861Z,76.23
2018-08-27T00:23:45.869Z,75.74
2018-08-27T00:24:24.370Z,76.21
2018-08-27T00:25:03.000Z,75.69
2018-08-27T00:25:41.476Z,75.14
2018-08-27T00:26:21.758Z,75.35
2018-08-27T00:27:00.466Z,75.10
2018-08-27T00:27:39.042Z,75.04
2018-08-27T00:28:17.651Z,75.29
2018-08-27T00:28:56.297Z,75.68
2018-08-27T00:29:34.892Z,75.80
2018-08-27T00:30:16.575Z,75.93
2018-08-27T00:30:55.451Z,75.59
2018-08-27T00:31:33.922Z,75.17
2018-08-27T00:32:12.689Z,75.75
2018-08-27T00:32:51.458Z,75.56
2018-08-27T00:33:31.354Z,74.74
2018-08-27T00:34:10.252Z,74.30
2018-08-27T00:34:48.983Z,75.08
2018-08-27T00:35:27.674Z,74.73
2018-08-27T00:36:06.462Z,74.52
2018-08-27T00:36:45.058Z,74.98
2018-08-27T00:37:23.619Z,74.86
2018-08-27T00:38:02.156Z,74.83
2018-08-27T00:38:40.704Z,74.40
2018-08-27T00:39:20.472Z,73.46
2018-08-27T00:39:58.865Z,74.41
2018-08-27T00:40:37.137Z,74.30
2018-08-27T00:41:15.311Z,73.23
2018-08-27T00:41:53.386Z,73.62
2018-08-27T00:42:31.329Z,74.06
2018-08-27T00:43:09.310Z,73.06
2018-08-27T00:43:47.469Z,72.50
2018-08-27T00:44:25.694Z,73.01
2018-08-27T00:45:03.604Z,72.24
2018-08-27T00:45:41.569Z,72.59
2018-08-27T00:46:19.483Z,72.73
2018-08-27T00:46:57.766Z,72.81
2018-08-27T00:47:35.681Z,73.36
2018-08-27T00:48:13.621Z,71.95
2018-08-27T00:48:51.550Z,72.75
2018-08-27T00:49:29.447Z,72.92
2018-08-27T00:50:07.412Z,73.06
2018-08-27T00:50:45.312Z,72.52
2018-08-27T00:51:23.177Z,71.92
2018-08-27T00:52:01.258Z,72.12
2018-08-27T00:52:40.300Z,72.07
2018-08-27T00:53:18.203Z,72.16
2018-08-27T00:53:56.280Z,71.71
2018-08-27T00:54:34.209Z,71.44
2018-08-27T00:55:12.125Z,71.72
2018-08-27T00:55:50.078Z,71.21
2018-08-27T00:56:28.020Z,71.62
2018-08-27T00:57:05.844Z,70.83
2018-08-27T00:57:43.777Z,71.01
2018-08-27T00:58:21.664Z,70.67
2018-08-27T00:58:59.596Z,71.61
2018-08-27T00:59:37.527Z,71.59
2018-08-27T01:00:16.551Z,71.69
2018-08-27T01:00:54.428Z,70.70
2018-08-27T01:01:32.883Z,70.35
2018-08-27T01:02:10.844Z,71.51
2018-08-27T01:02:48.734Z,70.76
2018-08-27T01:03:27.477Z,69.73
2018-08-27T01:04:05.426Z,69.87
2018-08-27T01:04:43.419Z,69.78
2018-08-27T01:05:22.282Z,70.02
2018-08-27T01:06:00.234Z,69.99
2018-08-27T01:06:38.226Z,70.78
2018-08-27T01:07:16.104Z,69.78
2018-08-27T01:07:54.628Z,70.59
2018-08-27T01:08:33.750Z,70.01
2018-08-27T01:09:12.194Z,69.40
2018-08-27T01:09:50.223Z,70.54
2018-08-27T01:10:29.087Z,70.22
2018-08-27T01:11:06.981Z,70.41
2018-08-27T01:11:44.925Z,70.11
2018-08-27T01:12:22.972Z,70.26
2018-08-27T01:13:01.882Z,70.67
2018-08-27T01:13:39.913Z,70.84
2018-08-27T01:14:17.892Z,70.16
2018-08-27T01:14:55.819Z,69.98
2018-08-27T01:15:33.808Z,70.68
2018-08-27T01:16:11.696Z,69.63
2018-08-27T01:16:49.615Z,70.15
2018-08-27T01:17:27.519Z,70.81
2018-08-27T01:18:05.419Z,70.30
2018-08-27T01:18:43.331Z,70.20
2018-08-27T01:19:21.408Z,70.17
2018-08-27T01:19:59.581Z,70.05
2018-08-27T01:20:37.563Z,70.53
2018-08-27T01:21:15.625Z,70.53
2018-08-27T01:21:53.663Z,70.49
2018-08-27T01:22:31.577Z,70.38
2018-08-27T01:23:09.546Z,69.19
2018-08-27T01:23:47.693Z,69.80
2018-08-27T01:24:26.683Z,69.43
2018-08-27T01:25:04.675Z,70.38
2018-08-27T01:25:42.583Z,69.62
2018-08-27T01:26:20.497Z,69.56
2018-08-27T01:26:58.427Z,70.58
2018-08-27T01:27:36.549Z,70.01
2018-08-27T01:28:14.622Z,70.13
2018-08-27T01:28:52.787Z,70.54
2018-08-27T01:29:33.712Z,69.89
2018-08-27T01:30:11.676Z,69.46
2018-08-27T01:30:49.529Z,70.18
2018-08-27T01:31:27.506Z,69.52
2018-08-27T01:32:09.651Z,69.66
2018-08-27T01:32:47.600Z,69.31
2018-08-27T01:33:25.525Z,68.93
2018-08-27T01:34:03.496Z,69.54
2018-08-27T01:34:41.413Z,69.40
2018-08-27T01:35:19.394Z,69.68
2018-08-27T01:35:58.908Z,69.32
2018-08-27T01:36:37.630Z,68.74
2018-08-27T01:37:15.777Z,69.64
2018-08-27T01:37:54.632Z,68.93
2018-08-27T01:38:33.002Z,68.39
2018-08-27T01:39:11.975Z,68.42
2018-08-27T01:39:49.941Z,68.09
2018-08-27T01:40:27.978Z,68.82
2018-08-27T01:41:05.987Z,68.37
2018-08-27T01:41:44.001Z,68.71
2018-08-27T01:42:22.034Z,67.94
2018-08-27T01:43:00.103Z,68.48
2018-08-27T01:43:38.484Z,68.75
2018-08-27T01:44:16.609Z,68.12
2018-08-27T01:44:54.686Z,67.77
2018-08-27T01:45:32.871Z,67.94
2018-08-27T01:46:10.823Z,67.97
2018-08-27T01:46:48.696Z,67.43
2018-08-27T01:47:26.704Z,67.51
2018-08-27T01:48:04.723Z,67.04
2018-08-27T01:48:43.170Z,66.36
2018-08-27T01:49:21.135Z,66.67
2018-08-27T01:49:59.385Z,66.50
2018-08-27T01:50:37.461Z,66.75
2018-08-27T01:51:15.689Z,66.19
2018-08-27T01:51:53.659Z,66.02
2018-08-27T01:52:31.694Z,65.69
2018-08-27T01:53:10.166Z,65.48
2018-08-27T01:53:48.890Z,65.49
2018-08-27T01:54:27.618Z,65.36
2018-08-27T01:55:06.212Z,64.98
2018-08-27T01:55:44.964Z,64.77
2018-08-27T01:56:23.548Z,64.93
2018-08-27T01:57:01.853Z,64.76
2018-08-27T01:57:40.202Z,64.64
2018-08-27T01:58:18.527Z,64.46
2018-08-27T01:58:56.896Z,64.01
2018-08-27T01:59:35.249Z,63.93
2018-08-27T02:00:14.113Z,63.64
2018-08-27T02:00:52.497Z,63.70
2018-08-27T02:01:30.815Z,63.39
2018-08-27T02:02:09.249Z,63.05
2018-08-27T02:02:47.374Z,62.75
2018-08-27T02:03:26.153Z,62.25
2018-08-27T02:04:04.372Z,61.97
2018-08-27T02:04:42.558Z,62.08
2018-08-27T02:05:21.066Z,61.37
2018-08-27T02:05:59.625Z,61.64
2018-08-27T02:06:38.790Z,61.14
2018-08-27T02:07:16.925Z,61.36
2018-08-27T02:07:55.150Z,61.01
2018-08-27T02:08:33.326Z,60.58
2018-08-27T02:09:12.827Z,60.30
2018-08-27T02:09:54.546Z,59.91
2018-08-27T02:10:32.864Z,59.70
2018-08-27T02:11:11.180Z,59.65
2018-08-27T02:11:49.413Z,59.11
2018-08-27T02:12:27.609Z,59.65
2018-08-27T02:13:05.911Z,58.70
2018-08-27T02:13:44.028Z,58.78
2018-08-27T02:14:22.364Z,58.38
2018-08-27T02:15:00.557Z,57.68
2018-08-27T02:15:38.748Z,58.14
2018-08-27T02:16:17.140Z,57.24
2018-08-27T02:16:55.281Z,57.04
2018-08-27T02:17:33.444Z,56.81
2018-08-27T02:18:11.696Z,57.23
2018-08-27T02:18:49.881Z,56.81
2018-08-27T02:19:28.019Z,56.54
2018-08-27T02:20:07.285Z,55.55
2018-08-27T02:20:45.557Z,55.04
2018-08-27T02:21:23.642Z,54.94
2018-08-27T02:22:07.446Z,54.77
2018-08-27T02:22:45.621Z,54.90
2018-08-27T02:23:24.896Z,54.71
2018-08-27T02:24:03.737Z,55.37
2018-08-27T02:24:41.624Z,54.45
2018-08-27T02:25:20.110Z,54.95
2018-08-27T02:25:58.139Z,55.12
2018-08-27T02:26:36.380Z,53.89
2018-08-27T02:27:14.357Z,54.54
2018-08-27T02:27:52.352Z,53.94
2018-08-27T02:28:30.449Z,54.51
2018-08-27T02:29:08.689Z,53.25
2018-08-27T02:29:46.544Z,53.80
2018-08-27T02:30:24.607Z,53.65
2018-08-27T02:31:02.540Z,53.29
2018-08-27T02:31:40.644Z,53.45
2018-08-27T02:32:22.627Z,53.27
2018-08-27T02:33:00.619Z,53.14
2018-08-27T02:33:38.529Z,53.02
2018-08-27T02:34:17.297Z,51.78
2018-08-27T02:34:55.301Z,52.43
2018-08-27T02:35:33.351Z,52.13
2018-08-27T02:36:11.371Z,50.95
2018-08-27T02:36:49.485Z,50.82
2018-08-27T02:37:27.877Z,50.82
2018-08-27T02:38:05.733Z,51.80
2018-08-27T02:38:46.639Z,51.23
2018-08-27T02:39:24.513Z,51.34
2018-08-27T02:40:02.655Z,50.34
2018-08-27T02:40:40.562Z,50.08
2018-08-27T02:41:18.588Z,50.13
2018-08-27T02:41:56.485Z,50.12
2018-08-27T02:42:34.445Z,50.45
2018-08-27T02:43:12.359Z,50.12
2018-08-27T02:43:50.495Z,50.41
2018-08-27T02:44:28.502Z,49.79
2018-08-27T02:45:06.344Z,50.35
2018-08-27T02:45:44.288Z,49.43
2018-08-27T02:46:22.251Z,50.18
2018-08-27T02:47:00.181Z,49.82
2018-08-27T02:47:38.067Z,48.92
2018-08-27T02:48:15.925Z,49.23
2018-08-27T02:48:56.061Z,48.39
2018-08-27T02:49:34.109Z,48.97
2018-08-27T02:50:12.139Z,48.09
2018-08-27T02:50:50.219Z,48.49
2018-08-27T02:51:28.146Z,47.54
2018-08-27T02:52:06.062Z,48.05
2018-08-27T02:52:44.234Z,47.47
2018-08-27T02:53:22.871Z,47.80
2018-08-27T02:54:00.746Z,47.68
2018-08-27T02:54:38.698Z,48.34
2018-08-27T02:55:17.139Z,48.68
2018-08-27T02:55:57.973Z,48.57
2018-08-27T02:56:35.887Z,47.94
2018-08-27T02:57:13.864Z,48.84
2018-08-27T02:57:51.788Z,48.26
2018-08-27T02:58:29.758Z,48.39
2018-08-27T02:59:07.674Z,48.84
2018-08-27T02:59:45.620Z,49.19
2018-08-27T03:00:23.550Z,48.57
2018-08-27T03:01:01.584Z,48.34
2018-08-27T03:01:40.024Z,47.92
2018-08-27T03:02:17.920Z,48.37
2018-08-27T03:02:56.065Z,47.90
2018-08-27T03:03:34.058Z,48.49
2018-08-27T03:04:12.188Z,48.40
2018-08-27T03:04:50.293Z,47.39
2018-08-27T03:05:28.250Z,47.53
2018-08-27T03:06:06.126Z,46.65
2018-08-27T03:06:44.097Z,46.89
2018-08-27T03:07:22.111Z,47.98
2018-08-27T03:08:00.065Z,47.96
2018-08-27T03:08:38.005Z,47.59
2018-08-27T03:09:15.951Z,48.27
2018-08-27T03:09:53.989Z,47.52
2018-08-27T03:10:32.902Z,48.84
2018-08-27T03:11:10.930Z,48.78
2018-08-27T03:11:48.933Z,49.20
2018-08-27T03:12:26.913Z,48.02
2018-08-27T03:13:04.836Z,48.30
2018-08-27T03:13:42.866Z,49.33
2018-08-27T03:14:20.868Z,49.70
2018-08-27T03:14:58.879Z,49.49
2018-08-27T03:15:36.905Z,50.35
2018-08-27T03:16:14.784Z,49.77
2018-08-27T03:16:52.745Z,50.59
2018-08-27T03:17:30.603Z,50.52
2018-08-27T03:18:08.677Z,50.76
2018-08-27T03:18:46.760Z,50.76
2018-08-27T03:19:24.694Z,50.55
2018-08-27T03:20:02.644Z,50.57
2018-08-27T03:20:40.589Z,50.30
2018-08-27T03:21:18.587Z,51.18
2018-08-27T03:21:56.592Z,50.90
2018-08-27T03:22:35.515Z,50.52
2018-08-27T03:23:13.464Z,51.02
2018-08-27T03:23:51.458Z,50.31
2018-08-27T03:24:29.441Z,50.96
2018-08-27T03:25:07.397Z,50.57
2018-08-27T03:25:45.587Z,50.66
2018-08-27T03:26:23.534Z,50.16
2018-08-27T03:27:02.237Z,51.04
2018-08-27T03:27:40.186Z,50.11
2018-08-27T03:28:18.116Z,49.69
2018-08-27T03:28:56.348Z,50.55
2018-08-27T03:29:34.349Z,50.53
2018-08-27T03:30:12.464Z,50.49
2018-08-27T03:30:50.349Z,49.80
2018-08-27T03:31:28.258Z,49.77
2018-08-27T03:32:06.268Z,49.43
2018-08-27T03:32:44.271Z,49.35
2018-08-27T03:33:23.448Z,49.84
2018-08-27T03:34:01.337Z,49.92
2018-08-27T03:34:39.205Z,49.67
2018-08-27T03:35:17.424Z,48.91
2018-08-27T03:35:55.345Z,49.74
2018-08-27T03:36:33.237Z,49.24
2018-08-27T03:37:11.162Z,49.85
2018-08-27T03:37:49.028Z,49.48
2018-08-27T03:38:26.937Z,49.29
2018-08-27T03:39:06.692Z,49.96
2018-08-27T03:39:44.728Z,50.06
2018-08-27T03:40:22.593Z,50.14
2018-08-27T03:41:00.487Z,50.05
2018-08-27T03:41:38.335Z,49.35
2018-08-27T03:42:16.508Z,50.06
2018-08-27T03:42:54.449Z,49.89
2018-08-27T03:43:32.360Z,49.71
2018-08-27T03:44:10.576Z,50.17
2018-08-27T03:44:49.384Z,49.38
2018-08-27T03:45:27.297Z,49.33
2018-08-27T03:46:05.095Z,49.87
2018-08-27T03:46:43.667Z,49.73
2018-08-27T03:47:21.543Z,49.14
2018-08-27T03:47:59.581Z,49.59
2018-08-27T03:48:37.630Z,49.03
2018-08-27T03:49:15.785Z,49.07
2018-08-27T03:49:53.710Z,48.22
2018-08-27T03:50:31.559Z,48.34
2018-08-27T03:51:09.535Z,48.21
2018-08-27T03:51:47.478Z,48.95
2018-08-27T03:52:25.539Z,48.30
2018-08-27T03:53:03.464Z,48.41
2018-08-27T03:53:42.264Z,49.04
2018-08-27T03:54:21.223Z,48.87
2018-08-27T03:54:59.082Z,48.63
2018-08-27T03:55:37.202Z,49.22
2018-08-27T03:56:15.233Z,48.28
2018-08-27T03:56:53.032Z,48.85
2018-08-27T03:57:31.035Z,47.97
2018-08-27T03:58:09.164Z,47.98
2018-08-27T03:58:47.220Z,49.06
2018-08-27T03:59:25.345Z,48.52
2018-08-27T04:00:03.397Z,49.06
2018-08-27T04:00:41.295Z,48.60
2018-08-27T04:01:19.308Z,48.46
2018-08-27T04:01:57.208Z,48.19
2018-08-27T04:02:35.105Z,48.14
2018-08-27T04:03:13.096Z,48.29
2018-08-27T04:03:51.370Z,48.88
2018-08-27T04:04:29.520Z,48.11
2018-08-27T04:05:21.361Z,48.44
2018-08-27T04:05:59.290Z,49.52
2018-08-27T04:06:37.276Z,48.99
2018-08-27T04:07:15.279Z,49.30
2018-08-27T04:07:53.306Z,48.25
2018-08-27T04:08:31.239Z,48.42
2018-08-27T04:09:11.285Z,46.93
2018-08-27T04:09:49.329Z,45.99
2018-08-27T04:10:27.233Z,45.68
2018-08-27T04:11:05.213Z,45.08
2018-08-27T04:11:43.683Z,45.09
2018-08-27T04:12:22.300Z,45.40
2018-08-27T04:13:01.133Z,45.84
2018-08-27T04:13:39.192Z,45.28
2018-08-27T04:14:17.911Z,45.02
2018-08-27T04:14:55.878Z,46.23
2018-08-27T04:15:33.943Z,45.16
2018-08-27T04:16:11.935Z,46.06
2018-08-27T04:16:49.842Z,46.08
2018-08-27T04:17:31.177Z,46.00
2018-08-27T04:18:09.288Z,44.92
2018-08-27T04:18:47.205Z,45.08
2018-08-27T04:19:25.995Z,45.27
2018-08-27T04:20:05.840Z,45.32
2018-08-27T04:20:43.821Z,45.49
2018-08-27T04:21:21.744Z,45.52
2018-08-27T04:21:59.614Z,45.96
2018-08-27T04:22:37.672Z,45.27
2018-08-27T04:23:15.487Z,44.81
2018-08-27T04:23:53.436Z,45.72
2018-08-27T04:24:31.477Z,46.04
2018-08-27T04:25:09.321Z,45.83
2018-08-27T04:25:47.318Z,44.89
2018-08-27T04:26:25.469Z,44.55
2018-08-27T04:27:03.484Z,45.21
2018-08-27T04:27:41.378Z,45.30
2018-08-27T04:28:19.354Z,45.33
2018-08-27T04:28:57.335Z,44.91
2018-08-27T04:29:36.153Z,44.66
2018-08-27T04:30:14.082Z,45.33
2018-08-27T04:30:53.784Z,44.82
2018-08-27T04:31:31.807Z,44.85
2018-08-27T04:32:09.906Z,44.63
2018-08-27T04:32:47.790Z,44.52
2018-08-27T04:33:25.824Z,44.33
2018-08-27T04:34:03.942Z,44.56
2018-08-27T04:34:41.782Z,44.48
2018-08-27T04:35:19.856Z,43.72
2018-08-27T04:35:58.184Z,43.68
2018-08-27T04:36:36.087Z,43.66
2018-08-27T04:37:14.220Z,44.19
2018-08-27T04:37:52.074Z,43.50
2018-08-27T04:38:30.142Z,43.41
2018-08-27T04:39:10.000Z,43.73
2018-08-27T04:39:47.918Z,43.49
2018-08-27T04:40:25.804Z,43.05
2018-08-27T04:41:03.726Z,43.86
2018-08-27T04:41:41.562Z,43.76
2018-08-27T04:42:19.499Z,42.97
2018-08-27T04:42:58.143Z,43.56
2018-08-27T04:43:36.065Z,43.84
2018-08-27T04:44:13.924Z,43.18
2018-08-27T04:44:51.824Z,43.64
2018-08-27T04:45:29.863Z,43.30
2018-08-27T04:46:08.691Z,42.99
2018-08-27T04:46:47.615Z,43.65
2018-08-27T04:47:25.839Z,42.63
2018-08-27T04:48:03.739Z,43.00
2018-08-27T04:48:41.686Z,43.62
2018-08-27T04:49:19.956Z,43.68
2018-08-27T04:49:57.871Z,43.03
2018-08-27T04:50:35.821Z,42.75
2018-08-27T04:51:13.693Z,42.85
2018-08-27T04:51:51.581Z,42.22
2018-08-27T04:52:29.375Z,42.60
2018-08-27T04:53:07.245Z,42.88
2018-08-27T04:53:45.245Z,42.26
2018-08-27T04:54:24.350Z,42.44
2018-08-27T04:55:02.221Z,42.88
2018-08-27T04:55:40.958Z,42.56
2018-08-27T04:56:18.819Z,43.28
2018-08-27T04:56:56.874Z,42.45
2018-08-27T04:57:34.781Z,42.36
2018-08-27T04:58:12.805Z,42.58
2018-08-27T04:58:51.856Z,43.17
2018-08-27T04:59:35.956Z,42.22
2018-08-27T05:00:17.793Z,42.57
2018-08-27T05:00:55.746Z,42.36
2018-08-27T05:01:34.089Z,42.56
2018-08-27T05:02:11.952Z,42.92
2018-08-27T05:02:50.975Z,43.67
2018-08-27T05:03:28.930Z,43.84
2018-08-27T05:04:06.937Z,43.67
2018-08-27T05:04:44.893Z,43.60
2018-08-27T05:05:22.958Z,43.76
2018-08-27T05:06:00.872Z,43.95
2018-08-27T05:06:38.845Z,44.58
2018-08-27T05:07:17.904Z,43.99
2018-08-27T05:07:55.782Z,44.60
2018-08-27T05:08:33.866Z,44.28
2018-08-27T05:09:13.107Z,43.89
2018-08-27T05:09:51.113Z,43.70
2018-08-27T05:10:29.133Z,44.29
2018-08-27T05:11:07.139Z,43.80
2018-08-27T05:11:45.093Z,44.41
2018-08-27T05:12:24.415Z,43.83
2018-08-27T05:13:02.649Z,44.13
2018-08-27T05:13:40.645Z,43.58
2018-08-27T05:14:18.675Z,44.33
2018-08-27T05:14:57.335Z,44.25
2018-08-27T05:15:35.372Z,44.35
2018-08-27T05:16:13.453Z,43.63
2018-08-27T05:16:51.515Z,43.66
2018-08-27T05:17:29.506Z,43.23
2018-08-27T05:18:07.495Z,43.93
2018-08-27T05:18:45.411Z,43.60
2018-08-27T05:19:23.294Z,43.05
2018-08-27T05:20:01.232Z,43.33
2018-08-27T05:20:39.154Z,42.55
2018-08-27T05:21:17.060Z,42.48
2018-08-27T05:21:54.915Z,42.55
2018-08-27T05:22:32.751Z,43.44
2018-08-27T05:23:10.873Z,42.58
2018-08-27T05:23:48.956Z,42.71
2018-08-27T05:24:26.875Z,42.99
2018-08-27T05:25:04.852Z,43.10
2018-08-27T05:25:42.809Z,43.83
2018-08-27T05:26:21.028Z,43.35
2018-08-27T05:26:58.966Z,42.35
2018-08-27T05:27:36.836Z,42.32
2018-08-27T05:28:14.779Z,42.94
2018-08-27T05:28:53.660Z,42.80
2018-08-27T05:29:31.530Z,42.03
2018-08-27T05:30:09.527Z,43.02
2018-08-27T05:30:47.739Z,42.03
2018-08-27T05:31:25.659Z,41.96
2018-08-27T05:32:03.855Z,41.87
2018-08-27T05:32:41.910Z,41.91
2018-08-27T05:33:19.940Z,42.79
2018-08-27T05:34:03.690Z,42.29
2018-08-27T05:34:41.698Z,42.49
2018-08-27T05:35:19.651Z,42.21
2018-08-27T05:35:57.816Z,42.81
2018-08-27T05:36:36.797Z,42.86
2018-08-27T05:37:14.766Z,42.49
2018-08-27T05:37:52.669Z,42.56
2018-08-27T05:38:31.571Z,41.98
2018-08-27T05:39:12.260Z,42.53
2018-08-27T05:39:50.097Z,42.36
2018-08-27T05:40:28.252Z,41.90
2018-08-27T05:41:06.956Z,42.27
2018-08-27T05:41:44.954Z,42.11
2018-08-27T05:42:23.896Z,42.03
2018-08-27T05:43:01.772Z,41.81
2018-08-27T05:43:39.725Z,41.48
2018-08-27T05:44:17.899Z,41.11
2018-08-27T05:44:55.832Z,41.51
2018-08-27T05:45:33.914Z,41.29
2018-08-27T05:46:11.937Z,41.53
2018-08-27T05:46:49.932Z,41.32
2018-08-27T05:47:27.787Z,41.53
2018-08-27T05:48:05.873Z,41.12
2018-08-27T05:48:43.809Z,40.64
2018-08-27T05:49:21.701Z,40.75
2018-08-27T05:49:59.873Z,40.39
2018-08-27T05:50:37.840Z,41.24
2018-08-27T05:51:15.739Z,41.10
2018-08-27T05:51:53.821Z,40.98
2018-08-27T05:52:31.850Z,40.03
2018-08-27T05:53:09.762Z,39.99
2018-08-27T05:53:47.795Z,39.95
2018-08-27T05:54:26.607Z,39.39
2018-08-27T05:55:04.828Z,39.86
2018-08-27T05:55:43.041Z,39.90
2018-08-27T05:56:20.900Z,39.86
2018-08-27T05:56:59.961Z,39.55
2018-08-27T05:57:37.981Z,39.27
2018-08-27T05:58:16.052Z,39.40
2018-08-27T05:58:53.930Z,38.95
2018-08-27T05:59:31.865Z,39.35
2018-08-27T06:00:09.849Z,39.25
2018-08-27T06:00:47.856Z,38.85
2018-08-27T06:01:26.028Z,39.05
2018-08-27T06:02:04.050Z,39.61
2018-08-27T06:02:42.048Z,39.51
2018-08-27T06:03:20.239Z,39.54
2018-08-27T06:03:58.124Z,39.29
2018-08-27T06:04:36.106Z,39.34
2018-08-27T06:05:13.991Z,39.27
2018-08-27T06:05:52.068Z,38.98
2018-08-27T06:06:30.357Z,39.54
2018-08-27T06:07:08.274Z,39.73
2018-08-27T06:07:46.193Z,39.15
2018-08-27T06:08:24.265Z,39.64
2018-08-27T06:09:02.298Z,40.18
2018-08-27T06:09:40.121Z,39.83
2018-08-27T06:10:18.100Z,39.25
2018-08-27T06:10:56.146Z,39.27
2018-08-27T06:11:34.086Z,40.32
2018-08-27T06:12:12.132Z,40.37
2018-08-27T06:12:50.122Z,40.39
2018-08-27T06:13:28.037Z,40.57
2018-08-27T06:14:05.955Z,40.33
2018-08-27T06:14:43.791Z,41.14
2018-08-27T06:15:21.743Z,41.12
2018-08-27T06:15:59.695Z,41.27
2018-08-27T06:16:37.895Z,41.10
2018-08-27T06:17:16.017Z,41.92
2018-08-27T06:17:54.121Z,42.19
2018-08-27T06:18:32.050Z,41.84
2018-08-27T06:19:10.177Z,41.99
2018-08-27T06:19:49.035Z,42.31
2018-08-27T06:20:27.924Z,43.15
2018-08-27T06:21:05.850Z,42.65
2018-08-27T06:21:43.713Z,42.68
2018-08-27T06:22:23.105Z,43.50
2018-08-27T06:23:01.456Z,43.80
2018-08-27T06:23:39.707Z,43.21
2018-08-27T06:24:18.086Z,43.56
2018-08-27T06:24:56.081Z,43.66
2018-08-27T06:25:34.005Z,44.66
2018-08-27T06:26:12.145Z,44.79
2018-08-27T06:26:50.235Z,44.90
2018-08-27T06:27:28.186Z,45.15
2018-08-27T06:28:07.413Z,45.03
2018-08-27T06:28:45.450Z,44.56
2018-08-27T06:29:23.431Z,45.40
2018-08-27T06:30:01.411Z,45.14
2018-08-27T06:30:39.759Z,44.46
2018-08-27T06:31:17.900Z,44.23
2018-08-27T06:31:56.113Z,44.32
2018-08-27T06:32:34.030Z,44.27
2018-08-27T06:33:11.950Z,44.41
2018-08-27T06:33:50.825Z,43.29
2018-08-27T06:34:28.970Z,43.88
2018-08-27T06:35:06.822Z,42.53
2018-08-27T06:35:44.869Z,41.94
2018-08-27T06:36:22.801Z,42.06
2018-08-27T06:37:00.919Z,41.95
2018-08-27T06:37:39.270Z,42.48
2018-08-27T06:38:17.248Z,42.00
2018-08-27T06:38:55.143Z,41.52
2018-08-27T06:40:36.727Z,40.90
2018-08-27T06:41:14.674Z,40.47
2018-08-27T06:41:52.631Z,40.71
2018-08-27T06:42:30.577Z,40.72
2018-08-27T06:43:08.602Z,39.99
2018-08-27T06:43:46.623Z,41.00
2018-08-27T06:44:24.540Z,40.91
2018-08-27T06:45:02.550Z,40.64
2018-08-27T06:45:40.539Z,40.37
2018-08-27T06:46:18.594Z,39.88
2018-08-27T06:46:56.386Z,39.68
2018-08-27T06:47:34.398Z,39.97
2018-08-27T06:48:12.617Z,39.85
2018-08-27T06:48:50.525Z,39.64
2018-08-27T06:49:28.621Z,39.67
2018-08-27T06:50:06.540Z,39.28
2018-08-27T06:50:44.394Z,38.73
2018-08-27T06:51:22.434Z,39.26
2018-08-27T06:52:00.552Z,38.29
2018-08-27T06:52:38.782Z,38.50
2018-08-27T06:53:17.218Z,38.26
2018-08-27T06:53:55.211Z,38.44
2018-08-27T06:54:33.617Z,38.45
2018-08-27T06:55:11.464Z,37.99
2018-08-27T06:55:49.570Z,38.38
2018-08-27T06:56:27.431Z,37.47
2018-08-27T06:57:05.347Z,37.65
2018-08-27T06:57:43.369Z,36.93
2018-08-27T06:58:22.258Z,37.76
2018-08-27T06:59:00.206Z,37.52
2018-08-27T06:59:38.145Z,38.09
2018-08-27T07:00:16.192Z,37.31
2018-08-27T07:02:02.206Z,37.29
2018-08-27T07:02:40.507Z,36.51
2018-08-27T07:03:18.475Z,36.00
2018-08-27T07:03:56.462Z,36.02
2018-08-27T07:04:34.426Z,35.85
2018-08-27T07:05:12.505Z,36.21
2018-08-27T07:05:51.480Z,36.76
2018-08-27T07:06:29.588Z,36.16
2018-08-27T07:07:07.579Z,37.11
2018-08-27T07:07:45.596Z,36.98
2018-08-27T07:08:23.629Z,36.93
2018-08-27T07:09:01.528Z,36.69
2018-08-27T07:09:39.506Z,37.15
2018-08-27T07:10:18.824Z,37.50
2018-08-27T07:10:56.956Z,37.22
2018-08-27T07:11:34.953Z,36.97
2018-08-27T07:12:12.951Z,36.57
2018-08-27T07:12:50.910Z,37.08
2018-08-27T07:13:28.831Z,36.69
2018-08-27T07:14:06.854Z,37.52
2018-08-27T07:14:44.663Z,36.89
2018-08-27T07:15:22.578Z,37.27
2018-08-27T07:16:00.527Z,37.28
2018-08-27T07:16:38.548Z,37.64
2018-08-27T07:17:16.526Z,37.70
2018-08-27T07:17:54.359Z,38.28
2018-08-27T07:18:32.221Z,37.86
2018-08-27T07:19:11.427Z,38.41
2018-08-27T07:19:49.365Z,38.06
2018-08-27T07:20:27.439Z,37.72
2018-08-27T07:21:05.458Z,37.57
2018-08-27T07:21:44.029Z,37.59
2018-08-27T07:22:22.075Z,37.83
2018-08-27T07:22:59.981Z,37.18
2018-08-27T07:23:37.818Z,37.98
2018-08-27T07:24:15.842Z,37.66
2018-08-27T07:24:54.639Z,38.58
2018-08-27T07:25:32.743Z,38.17
2018-08-27T07:26:10.669Z,38.83
2018-08-27T07:26:48.676Z,38.53
2018-08-27T07:27:26.697Z,38.98
2018-08-27T07:28:04.713Z,38.10
2018-08-27T07:28:42.834Z,38.31
2018-08-27T07:29:20.729Z,38.12
2018-08-27T07:29:58.612Z,38.11
2018-08-27T07:30:36.452Z,38.52
2018-08-27T07:31:14.402Z,38.11
2018-08-27T07:31:52.310Z,38.01
2018-08-27T07:32:30.231Z,37.81
2018-08-27T07:33:08.235Z,37.85
2018-08-27T07:33:46.086Z,38.46
2018-08-27T07:34:24.172Z,38.10
2018-08-27T07:35:02.141Z,38.55
2018-08-27T07:35:40.134Z,38.77
2018-08-27T07:36:18.439Z,38.67
2018-08-27T07:36:56.460Z,39.25
2018-08-27T07:37:34.933Z,38.63
2018-08-27T07:38:12.891Z,39.58
2018-08-27T07:38:50.915Z,39.44
2018-08-27T07:39:29.918Z,38.97
2018-08-27T07:40:08.283Z,39.50
2018-08-27T07:40:46.189Z,38.99
2018-08-27T07:41:24.272Z,39.71
2018-08-27T07:42:02.405Z,40.03
2018-08-27T07:42:40.650Z,39.61
2018-08-27T07:43:18.746Z,40.29
2018-08-27T07:43:56.637Z,40.72
2018-08-27T07:44:34.684Z,40.35
2018-08-27T07:45:13.090Z,40.37
2018-08-27T07:45:51.169Z,40.94
2018-08-27T07:46:29.216Z,40.47
2018-08-27T07:47:07.216Z,40.81
2018-08-27T07:47:45.282Z,40.54
2018-08-27T07:48:23.346Z,39.89
2018-08-27T07:49:01.300Z,40.61
2018-08-27T07:49:39.262Z,39.93
2018-08-27T07:50:17.175Z,39.92
2018-08-27T07:50:55.164Z,40.50
2018-08-27T07:51:33.055Z,40.33
2018-08-27T07:52:11.648Z,39.39
2018-08-27T07:52:49.628Z,39.47
2018-08-27T07:53:27.677Z,39.78
2018-08-27T07:54:05.652Z,40.53
2018-08-27T07:54:43.914Z,40.50
2018-08-27T07:55:21.960Z,40.20
2018-08-27T07:55:59.842Z,40.40
2018-08-27T07:56:37.866Z,40.37
2018-08-27T07:57:15.919Z,39.46
2018-08-27T07:57:55.014Z,39.49
2018-08-27T07:58:33.156Z,39.34
2018-08-27T07:59:11.210Z,39.94
2018-08-27T07:59:49.244Z,39.28
2018-08-27T08:00:28.181Z,39.21
2018-08-27T08:01:08.167Z,39.05
2018-08-27T08:01:46.268Z,39.16
2018-08-27T08:02:24.292Z,39.39
2018-08-27T08:03:02.468Z,38.90
2018-08-27T08:03:40.466Z,38.21
2018-08-27T08:04:18.536Z,37.31
2018-08-27T08:04:56.598Z,36.82
2018-08-27T08:05:34.596Z,36.85
2018-08-27T08:06:12.622Z,37.69
2018-08-27T08:06:51.202Z,37.36
2018-08-27T08:07:29.133Z,38.03
2018-08-27T08:08:07.083Z,37.71
2018-08-27T08:08:45.060Z,37.64
2018-08-27T08:09:23.957Z,37.98
2018-08-27T08:10:01.965Z,37.91
2018-08-27T08:10:39.949Z,38.33
2018-08-27T08:11:18.002Z,38.84
2018-08-27T08:11:55.994Z,38.96
2018-08-27T08:12:34.020Z,38.72
2018-08-27T08:13:12.021Z,38.56
2018-08-27T08:13:50.243Z,38.54
2018-08-27T08:14:28.363Z,38.50
2018-08-27T08:15:06.426Z,38.08